Time;durP1;ratioP1;P1;durP2;ratioP2;P2;SDS_P1;SDS_P2;PMS_P1;PMS_P2;Temp;Humidity;BMP_temperature;BMP_pressure;BME280_temperature;BME280_humidity;BME280_pressure;Samples;Min_cycle;Max_cycle;Signal;HPM_P1;HPM_P2
2022/10/06 00:00:35;;;;;;;4.65;1.20;;;13.70;99.90;;;;;;4953459;28;20039;-80
2022/10/06 00:03:01;;;;;;;6.43;1.20;;;13.70;99.90;;;;;;4951893;28;21986;-80
2022/10/06 00:05:27;;;;;;;5.13;1.40;;;13.60;99.90;;;;;;4952939;28;20090;-79
2022/10/06 00:07:54;;;;;;;5.65;1.15;;;13.60;99.90;;;;;;4933485;28;20098;-80
2022/10/06 00:10:20;;;;;;;6.20;1.10;;;13.50;99.90;;;;;;4936382;28;20112;-80
2022/10/06 00:12:48;;;;;;;7.60;1.50;;;13.60;99.90;;;;;;4941229;28;21754;-80
2022/10/06 00:15:17;;;;;;;5.85;1.33;;;13.50;99.90;;;;;;4953179;28;20516;-80
2022/10/06 00:17:43;;;;;;;6.05;1.48;;;13.50;99.90;;;;;;4935446;28;20074;-79
2022/10/06 00:20:09;;;;;;;9.55;1.20;;;13.50;99.90;;;;;;4939113;28;20066;-80
2022/10/06 00:22:40;;;;;;;7.22;1.52;;;13.40;99.90;;;;;;4952621;28;20094;-79
2022/10/06 00:25:07;;;;;;;6.82;1.20;;;13.40;99.90;;;;;;4930467;28;20410;-81
2022/10/06 00:27:35;;;;;;;5.13;1.13;;;13.30;99.90;;;;;;4949045;28;20082;-81
2022/10/06 00:30:05;;;;;;;7.35;1.52;;;13.30;99.90;;;;;;4951722;28;20066;-81
2022/10/06 00:32:30;;;;;;;3.92;1.20;;;13.20;99.90;;;;;;4936071;28;20102;-81
2022/10/06 00:34:58;;;;;;;5.00;1.20;;;13.30;99.90;;;;;;4951044;28;20043;-79
2022/10/06 00:37:25;;;;;;;7.55;1.30;;;13.20;99.90;;;;;;4954660;28;20101;-80
2022/10/06 00:39:50;;;;;;;8.60;1.63;;;13.30;99.90;;;;;;4974654;28;20046;-80
2022/10/06 00:42:25;;;;;;;6.90;1.58;;;13.30;99.90;;;;;;4954916;28;21002;-79
2022/10/06 00:44:51;;;;;;;8.23;1.60;;;13.30;99.90;;;;;;4950957;28;20066;-80
2022/10/06 00:47:19;;;;;;;9.40;1.65;;;13.30;99.90;;;;;;4943195;28;20486;-80
2022/10/06 00:49:45;;;;;;;5.82;1.40;;;13.30;99.90;;;;;;4951931;28;20073;-81
2022/10/06 00:52:15;;;;;;;7.68;1.80;;;13.30;99.90;;;;;;4965075;28;20071;-80
2022/10/06 00:54:41;;;;;;;10.23;2.08;;;13.30;99.90;;;;;;4949903;28;20050;-80
2022/10/06 00:57:07;;;;;;;9.68;2.00;;;13.30;99.90;;;;;;4957973;28;20129;-81
2022/10/06 00:59:35;;;;;;;6.38;1.45;;;13.30;99.90;;;;;;4955105;28;20134;-80
2022/10/06 01:02:10;;;;;;;9.68;1.70;;;13.20;99.90;;;;;;4953412;28;20038;-79
2022/10/06 01:04:40;;;;;;;9.85;1.67;;;13.10;99.90;;;;;;4963395;28;20130;-81
2022/10/06 01:07:06;;;;;;;10.15;2.05;;;13.20;99.90;;;;;;4960130;28;20125;-80
2022/10/06 01:09:32;;;;;;;12.77;2.08;;;13.20;99.90;;;;;;4942896;28;20050;-81
2022/10/06 01:12:01;;;;;;;6.90;1.67;;;13.20;99.90;;;;;;4959701;28;20533;-80
2022/10/06 01:14:27;;;;;;;8.20;1.85;;;13.20;99.90;;;;;;4956896;28;20043;-80
2022/10/06 01:17:22;;;;;;;7.53;1.70;;;13.10;99.90;;;;;;4956817;28;20375;-79
2022/10/06 01:19:52;;;;;;;5.78;1.60;;;13.10;99.90;;;;;;4936367;28;20081;-80
2022/10/06 01:22:35;;;;;;;7.78;1.70;;;13.10;99.90;;;;;;4940253;28;20047;-81
2022/10/06 01:25:02;;;;;;;;;;;13.00;99.90;;;;;;4942980;28;20509;-80
2022/10/06 01:27:30;;;;;;;8.70;1.70;;;13.00;99.90;;;;;;4954911;28;19964;-80
2022/10/06 01:29:57;;;;;;;10.25;1.70;;;13.00;99.90;;;;;;4944842;28;20042;-81
2022/10/06 01:32:25;;;;;;;10.68;1.80;;;12.90;99.90;;;;;;4943262;28;20051;-80
2022/10/06 01:34:51;;;;;;;10.40;1.60;;;12.90;99.90;;;;;;4957677;28;20066;-80
2022/10/06 01:37:16;;;;;;;9.88;1.73;;;12.90;99.90;;;;;;4943635;28;20081;-79
2022/10/06 01:39:43;;;;;;;7.93;1.80;;;12.90;99.90;;;;;;4963329;28;20491;-79
2022/10/06 01:42:09;;;;;;;7.97;1.60;;;12.90;99.90;;;;;;4953880;28;20528;-80
2022/10/06 01:44:35;;;;;;;8.90;1.85;;;12.90;99.90;;;;;;4935616;28;20047;-79
2022/10/06 01:47:03;;;;;;;9.77;2.15;;;12.90;99.90;;;;;;4957339;28;20051;-79
2022/10/06 01:49:29;;;;;;;8.70;1.75;;;12.90;99.90;;;;;;4942934;28;20070;-78
2022/10/06 01:51:54;;;;;;;9.32;1.70;;;12.80;99.90;;;;;;4956082;28;20074;-79
2022/10/06 01:54:20;;;;;;;8.55;1.77;;;12.90;99.90;;;;;;4956464;28;20047;-81
2022/10/06 01:56:45;;;;;;;9.95;1.52;;;12.80;99.90;;;;;;4938228;28;20050;-80
2022/10/06 01:59:11;;;;;;;9.20;1.55;;;12.80;99.90;;;;;;4951675;28;20047;-81
2022/10/06 02:01:37;;;;;;;8.32;1.70;;;12.70;99.90;;;;;;4951062;28;20058;-81
2022/10/06 02:04:02;;;;;;;10.98;2.10;;;12.60;99.90;;;;;;4954758;28;20066;-81
2022/10/06 02:06:28;;;;;;;7.63;1.60;;;12.60;99.90;;;;;;4953670;28;20055;-81
2022/10/06 02:08:54;;;;;;;11.55;1.90;;;12.60;99.90;;;;;;4952820;28;20047;-81
2022/10/06 02:11:19;;;;;;;8.55;1.48;;;12.50;99.90;;;;;;4939529;28;20045;-81
2022/10/06 02:13:46;;;;;;;8.48;1.63;;;12.50;99.90;;;;;;4955896;28;20055;-80
2022/10/06 02:16:12;;;;;;;8.20;1.60;;;12.50;99.90;;;;;;4951447;28;20047;-81
2022/10/06 02:18:39;;;;;;;10.07;1.98;;;12.50;99.90;;;;;;4953739;28;20134;-80
2022/10/06 02:21:05;;;;;;;7.20;1.55;;;12.50;99.90;;;;;;4952741;28;20657;-80
2022/10/06 02:23:32;;;;;;;9.70;1.98;;;12.40;99.90;;;;;;4948796;28;20039;-80
2022/10/06 02:26:04;;;;;;;13.43;2.00;;;12.40;99.90;;;;;;4947119;28;20549;-81
2022/10/06 02:28:30;;;;;;;13.55;1.90;;;12.40;99.90;;;;;;4952661;28;20070;-81
2022/10/06 02:31:04;;;;;;;6.40;1.75;;;12.30;99.90;;;;;;4954214;28;20501;-81
2022/10/06 02:33:30;;;;;;;11.32;1.90;;;12.20;99.90;;;;;;4943870;28;20155;-81
2022/10/06 02:35:57;;;;;;;9.05;2.13;;;12.30;99.90;;;;;;4964537;28;20406;-81
2022/10/06 02:38:23;;;;;;;10.45;1.77;;;12.30;99.90;;;;;;4945048;28;20035;-81
2022/10/06 02:40:49;;;;;;;12.95;2.20;;;12.20;99.90;;;;;;4943577;28;20045;-80
2022/10/06 02:43:15;;;;;;;11.48;2.42;;;12.20;99.90;;;;;;4940429;28;20117;-81
2022/10/06 02:45:42;;;;;;;16.70;2.30;;;12.20;99.90;;;;;;4957115;28;20538;-81
2022/10/06 02:48:10;;;;;;;10.55;1.92;;;12.20;99.90;;;;;;4954239;28;20047;-80
2022/10/06 02:50:37;;;;;;;12.50;2.03;;;12.10;99.90;;;;;;4956764;28;20089;-80
2022/10/06 02:53:07;;;;;;;12.70;2.33;;;12.10;99.90;;;;;;4941795;28;20039;-81
2022/10/06 02:55:34;;;;;;;10.65;2.25;;;12.00;99.90;;;;;;4954594;28;20150;-81
2022/10/06 02:58:00;;;;;;;11.93;2.10;;;12.00;99.90;;;;;;4954658;28;20136;-81
2022/10/06 03:00:25;;;;;;;15.52;2.22;;;12.00;99.90;;;;;;4949189;28;20054;-81
2022/10/06 03:02:52;;;;;;;9.13;2.05;;;12.00;99.90;;;;;;4955453;28;20669;-81
2022/10/06 03:05:18;;;;;;;7.68;2.05;;;12.00;99.90;;;;;;4968175;28;20813;-80
2022/10/06 03:07:44;;;;;;;12.75;1.67;;;12.00;99.90;;;;;;4947695;28;20168;-80
2022/10/06 03:10:10;;;;;;;12.75;2.75;;;12.00;99.90;;;;;;4940978;28;20034;-80
2022/10/06 03:12:35;;;;;;;13.65;2.28;;;12.00;99.90;;;;;;4949573;28;20046;-79
2022/10/06 03:15:01;;;;;;;8.88;2.00;;;12.00;99.90;;;;;;4954425;28;20046;-79
2022/10/06 03:17:26;;;;;;;11.27;2.22;;;11.90;99.90;;;;;;4957870;28;20081;-79
2022/10/06 03:19:54;;;;;;;16.05;2.28;;;11.90;99.90;;;;;;4956228;28;20035;-81
2022/10/06 03:22:20;;;;;;;9.90;1.80;;;11.90;99.90;;;;;;4953157;28;20109;-80
2022/10/06 03:24:45;;;;;;;10.70;1.83;;;11.80;99.90;;;;;;4951750;28;20039;-79
2022/10/06 03:27:11;;;;;;;14.52;2.05;;;11.80;99.90;;;;;;4955758;28;20043;-79
2022/10/06 03:29:37;;;;;;;13.65;2.40;;;11.70;99.90;;;;;;4953057;28;20127;-79
2022/10/06 03:32:02;;;;;;;13.70;2.15;;;11.70;99.90;;;;;;4952932;28;20043;-81
2022/10/06 03:34:28;;;;;;;14.18;2.20;;;11.70;99.90;;;;;;4950217;28;20045;-79
2022/10/06 03:36:53;;;;;;;11.23;2.03;;;11.70;99.90;;;;;;4968382;28;20112;-79
2022/10/06 03:39:19;;;;;;;17.20;2.40;;;11.70;99.90;;;;;;4933698;28;20047;-80
2022/10/06 03:41:45;;;;;;;17.45;2.05;;;11.60;99.90;;;;;;4957507;28;20046;-81
2022/10/06 03:44:10;;;;;;;16.08;2.13;;;11.50;99.90;;;;;;4959157;28;20592;-79
2022/10/06 03:46:36;;;;;;;13.10;2.13;;;11.50;99.90;;;;;;4940807;28;20055;-79
2022/10/06 03:49:02;;;;;;;9.10;1.85;;;11.40;99.90;;;;;;4960948;28;20043;-79
2022/10/06 03:51:31;;;;;;;12.82;1.98;;;11.40;99.90;;;;;;4945401;28;20040;-79
2022/10/06 03:53:58;;;;;;;9.32;2.03;;;11.30;99.90;;;;;;4951609;28;20089;-79
2022/10/06 03:56:31;;;;;;;10.02;2.20;;;11.30;99.90;;;;;;4947474;28;20509;-80
2022/10/06 03:59:06;;;;;;;9.93;1.92;;;11.20;99.90;;;;;;4949354;28;20031;-79
2022/10/06 04:01:38;;;;;;;12.73;2.45;;;11.30;99.90;;;;;;4956333;28;20051;-79
2022/10/06 04:04:05;;;;;;;13.00;2.45;;;11.30;99.90;;;;;;4955537;28;21044;-79
2022/10/06 04:06:33;;;;;;;13.80;2.47;;;11.30;99.90;;;;;;4947109;28;20134;-79
2022/10/06 04:08:59;;;;;;;15.60;2.72;;;11.20;99.90;;;;;;4955444;28;20117;-79
2022/10/06 04:11:28;;;;;;;11.82;2.13;;;11.20;99.90;;;;;;4956192;28;20042;-79
2022/10/06 04:13:59;;;;;;;12.18;2.15;;;11.20;99.90;;;;;;4951816;28;20047;-80
2022/10/06 04:16:32;;;;;;;14.52;2.22;;;11.20;99.90;;;;;;4962591;28;20032;-80
2022/10/06 04:19:01;;;;;;;9.25;1.67;;;11.20;99.90;;;;;;4946964;28;20549;-80
2022/10/06 04:21:28;;;;;;;14.20;2.00;;;11.10;99.90;;;;;;4955497;28;20071;-79
2022/10/06 04:23:55;;;;;;;12.68;2.30;;;11.20;99.90;;;;;;4964510;28;20049;-79
2022/10/06 04:26:22;;;;;;;10.73;2.05;;;11.10;99.90;;;;;;4949277;28;20043;-80
2022/10/06 04:28:48;;;;;;;12.10;2.17;;;11.10;99.90;;;;;;4954745;28;20047;-79
2022/10/06 04:31:18;;;;;;;13.32;2.10;;;11.10;99.90;;;;;;4958810;28;20053;-80
2022/10/06 04:33:45;;;;;;;11.85;2.22;;;11.00;99.90;;;;;;4955142;28;20053;-78
2022/10/06 04:36:23;;;;;;;12.27;1.80;;;11.00;99.90;;;;;;4959751;28;20129;-81
2022/10/06 04:38:57;;;;;;;15.98;2.00;;;10.90;99.90;;;;;;4952618;28;20042;-81
2022/10/06 04:41:46;;;;;;;12.73;2.00;;;10.90;99.90;;;;;;4965994;28;20055;-79
2022/10/06 04:44:12;;;;;;;13.05;2.08;;;10.90;99.90;;;;;;4939997;28;20053;-81
2022/10/06 04:46:37;;;;;;;13.98;1.73;;;10.90;99.90;;;;;;4958055;28;20043;-80
2022/10/06 04:49:03;;;;;;;11.85;2.20;;;10.80;99.90;;;;;;4938929;28;20043;-81
2022/10/06 04:51:29;;;;;;;13.55;2.40;;;10.80;99.90;;;;;;4967361;28;20097;-80
2022/10/06 04:53:54;;;;;;;11.05;1.90;;;10.70;99.90;;;;;;4958857;28;20097;-80
2022/10/06 04:56:28;;;;;;;7.75;1.65;;;10.70;99.90;;;;;;4953678;28;20699;-81
2022/10/06 04:58:55;;;;;;;12.45;3.35;;;10.60;99.90;;;;;;4953757;28;20393;-80
2022/10/06 05:01:25;;;;;;;10.48;2.17;;;10.60;99.90;;;;;;4952766;28;20590;-80
2022/10/06 05:03:53;;;;;;;14.35;2.13;;;10.60;99.90;;;;;;4964035;28;20426;-81
2022/10/06 05:06:25;;;;;;;10.02;2.00;;;10.50;99.90;;;;;;4937403;28;20054;-79
2022/10/06 05:08:53;;;;;;;9.80;2.10;;;10.50;99.90;;;;;;4946751;29;20391;-79
2022/10/06 05:11:19;;;;;;;11.20;2.53;;;10.50;99.90;;;;;;4955811;28;20075;-80
2022/10/06 05:13:45;;;;;;;14.57;2.70;;;10.40;99.90;;;;;;4971522;28;20096;-80
2022/10/06 05:16:13;;;;;;;15.63;2.22;;;10.50;99.90;;;;;;4957367;28;20202;-80
2022/10/06 05:18:39;;;;;;;12.30;2.33;;;10.50;99.90;;;;;;4961915;28;20494;-80
2022/10/06 05:21:14;;;;;;;11.15;1.95;;;10.50;99.90;;;;;;4952653;28;20572;-80
2022/10/06 05:23:41;;;;;;;11.05;2.22;;;10.50;99.90;;;;;;4947744;28;20085;-80
2022/10/06 05:26:07;;;;;;;15.38;2.45;;;10.50;99.90;;;;;;4971637;28;20441;-79
2022/10/06 05:28:34;;;;;;;12.85;2.20;;;10.50;99.90;;;;;;4945860;28;20047;-80
2022/10/06 05:31:06;;;;;;;14.45;2.58;;;10.50;99.90;;;;;;4953464;28;20142;-80
2022/10/06 05:33:34;;;;;;;13.18;2.22;;;10.50;99.90;;;;;;4940254;28;20122;-80
2022/10/06 05:36:05;;;;;;;10.70;2.53;;;10.50;99.90;;;;;;4946985;28;20038;-79
2022/10/06 05:38:32;;;;;;;10.27;2.05;;;10.50;99.90;;;;;;4955083;28;20050;-79
2022/10/06 05:41:05;;;;;;;14.43;2.47;;;10.50;99.90;;;;;;4955513;28;20047;-80
2022/10/06 05:43:32;;;;;;;13.90;2.15;;;10.50;99.90;;;;;;4951312;28;20054;-82
2022/10/06 05:46:00;;;;;;;12.95;2.08;;;10.60;99.90;;;;;;4956344;28;20117;-83
2022/10/06 05:48:27;;;;;;;16.38;2.78;;;10.50;99.90;;;;;;4948607;28;20065;-83
2022/10/06 05:51:05;;;;;;;17.83;3.08;;;10.50;99.90;;;;;;4942250;28;20622;-82
2022/10/06 05:53:32;;;;;;;16.05;2.60;;;10.50;99.90;;;;;;4970195;28;20078;-77
2022/10/06 05:56:19;;;;;;;11.02;2.50;;;10.50;99.90;;;;;;4942093;28;20034;-81
2022/10/06 05:58:47;;;;;;;9.52;1.95;;;10.50;99.90;;;;;;4939581;28;20165;-81
2022/10/06 06:01:24;;;;;;;15.23;2.25;;;10.50;99.90;;;;;;4943223;28;20585;-79
2022/10/06 06:03:53;;;;;;;16.40;3.17;;;10.50;99.90;;;;;;4958803;28;20072;-80
2022/10/06 06:06:23;;;;;;;13.48;2.05;;;10.50;99.90;;;;;;4955286;28;20054;-80
2022/10/06 06:09:09;;;;;;;13.63;2.42;;;10.50;99.90;;;;;;4956066;28;20497;-78
2022/10/06 06:11:38;;;;;;;9.88;2.10;;;10.50;99.90;;;;;;4936238;28;20035;-78
2022/10/06 06:14:15;;;;;;;15.68;2.40;;;10.50;99.90;;;;;;4955287;28;20505;-79
2022/10/06 06:16:41;;;;;;;14.82;2.33;;;10.50;99.90;;;;;;4970912;28;20050;-79
2022/10/06 06:19:09;;;;;;;13.73;2.47;;;10.50;99.90;;;;;;4972253;28;20047;-80
2022/10/06 06:21:35;;;;;;;12.45;1.92;;;10.60;99.90;;;;;;4936340;28;20042;-80
2022/10/06 06:24:02;;;;;;;19.25;2.55;;;10.50;99.90;;;;;;4944477;28;20038;-80
2022/10/06 06:26:29;;;;;;;16.15;2.30;;;10.60;99.90;;;;;;4948557;28;20963;-78
2022/10/06 06:29:04;;;;;;;13.82;2.15;;;10.60;99.90;;;;;;4943446;28;20043;-79
2022/10/06 06:31:35;;;;;;;15.65;2.80;;;10.70;99.90;;;;;;4948933;28;20090;-79
2022/10/06 06:34:03;;;;;;;18.88;2.60;;;10.70;99.90;;;;;;4940307;28;20082;-79
2022/10/06 06:36:34;;;;;;;19.45;2.42;;;10.70;99.90;;;;;;4935578;28;20039;-79
2022/10/06 06:39:03;;;;;;;15.10;2.65;;;10.70;99.90;;;;;;4952328;28;20042;-79
2022/10/06 06:41:36;;;;;;;14.73;2.40;;;10.70;99.90;;;;;;4932385;28;20050;-81
2022/10/06 06:44:02;;;;;;;17.48;2.50;;;10.70;99.90;;;;;;4944760;28;20050;-82
2022/10/06 06:46:32;;;;;;;14.13;2.20;;;10.80;99.90;;;;;;4971965;28;20074;-81
2022/10/06 06:49:02;;;;;;;14.32;2.25;;;10.80;99.90;;;;;;4955401;28;20042;-81
2022/10/06 06:51:29;;;;;;;17.15;2.55;;;10.80;99.90;;;;;;4933527;28;20621;-81
2022/10/06 06:53:57;;;;;;;14.90;2.47;;;10.90;99.90;;;;;;4939867;28;20054;-81
2022/10/06 06:56:23;;;;;;;16.70;2.20;;;10.90;99.90;;;;;;4941501;28;20049;-81
2022/10/06 06:58:49;;;;;;;10.68;2.10;;;10.90;99.90;;;;;;4937862;28;20072;-80
2022/10/06 07:01:20;;;;;;;12.57;2.40;;;11.10;99.90;;;;;;4941731;28;20047;-81
2022/10/06 07:03:54;;;;;;;14.07;2.40;;;11.20;99.90;;;;;;4952381;28;20054;-80
2022/10/06 07:06:21;;;;;;;12.23;1.98;;;11.20;99.90;;;;;;4952298;28;20054;-80
2022/10/06 07:08:48;;;;;;;11.85;2.15;;;11.20;99.90;;;;;;4946341;28;20039;-81
2022/10/06 07:11:16;;;;;;;13.52;2.03;;;11.30;99.90;;;;;;4939423;28;20057;-79
2022/10/06 07:13:42;;;;;;;12.77;2.33;;;11.40;99.90;;;;;;4955989;28;20125;-81
2022/10/06 07:27:12;;;;;;;10.07;2.22;;;11.70;99.90;;;;;;4949014;28;20055;-79
2022/10/06 07:29:37;;;;;;;14.73;2.10;;;11.70;99.90;;;;;;4954701;28;20548;-80
2022/10/06 07:32:03;;;;;;;15.65;3.17;;;11.80;99.90;;;;;;4953390;28;20054;-79
2022/10/06 07:34:29;;;;;;;17.35;2.42;;;11.80;99.90;;;;;;4945859;28;20103;-79
2022/10/06 07:36:56;;;;;;;20.85;3.13;;;11.90;99.90;;;;;;4949870;28;20039;-79
2022/10/06 07:39:22;;;;;;;12.95;2.30;;;11.90;99.90;;;;;;4934253;29;20046;-79
2022/10/06 07:41:47;;;;;;;13.57;2.35;;;12.00;99.90;;;;;;4931080;28;20413;-80
2022/10/06 07:44:13;;;;;;;15.07;2.60;;;12.00;99.90;;;;;;4954680;28;20429;-80
2022/10/06 07:46:38;;;;;;;14.70;2.60;;;12.10;99.90;;;;;;4957147;28;20051;-78
2022/10/06 07:49:04;;;;;;;11.68;2.03;;;12.20;99.90;;;;;;4953079;28;20047;-81
2022/10/06 07:51:30;;;;;;;11.85;2.15;;;12.20;99.90;;;;;;4953230;28;20046;-81
2022/10/06 07:53:55;;;;;;;12.57;2.38;;;12.30;99.90;;;;;;4940516;28;20046;-80
2022/10/06 07:56:21;;;;;;;15.98;2.88;;;12.30;99.90;;;;;;4952664;28;20085;-80
2022/10/06 07:58:47;;;;;;;12.35;2.38;;;12.40;99.90;;;;;;4953835;28;20485;-79
2022/10/06 08:01:16;;;;;;;15.90;2.30;;;12.40;99.90;;;;;;4956833;28;20054;-78
2022/10/06 08:03:43;;;;;;;16.63;2.33;;;12.40;99.90;;;;;;4954321;28;20090;-78
2022/10/06 08:06:12;;;;;;;15.65;2.47;;;12.50;99.90;;;;;;4953145;28;20093;-80
2022/10/06 08:08:39;;;;;;;14.05;2.70;;;12.60;99.90;;;;;;4966496;28;20125;-78
2022/10/06 08:11:06;;;;;;;13.65;2.22;;;12.60;99.90;;;;;;4933373;28;20053;-79
2022/10/06 08:13:34;;;;;;;12.40;2.50;;;12.70;99.90;;;;;;4968632;28;20234;-78
2022/10/06 08:16:11;;;;;;;17.48;2.85;;;12.80;99.90;;;;;;4966600;28;20046;-78
2022/10/06 08:18:37;;;;;;;13.05;2.30;;;12.80;99.90;;;;;;4951467;28;20057;-81
2022/10/06 08:21:15;;;;;;;13.43;2.67;;;12.90;99.90;;;;;;4953316;28;20042;-80
2022/10/06 08:23:41;;;;;;;16.55;2.63;;;13.00;99.90;;;;;;4948785;28;20057;-79
2022/10/06 08:26:08;;;;;;;11.18;2.10;;;13.10;99.90;;;;;;4952414;28;20050;-80
2022/10/06 08:28:35;;;;;;;17.60;2.58;;;13.20;99.90;;;;;;4954596;28;20498;-80
2022/10/06 08:31:06;;;;;;;16.73;2.67;;;13.20;99.90;;;;;;4935190;28;20035;-80
2022/10/06 08:33:34;;;;;;;10.68;2.10;;;13.30;99.90;;;;;;4951217;28;20073;-80
2022/10/06 08:36:07;;;;;;;15.15;2.85;;;13.30;99.90;;;;;;4931934;28;20102;-80
2022/10/06 08:38:34;;;;;;;10.55;2.25;;;13.40;99.90;;;;;;4954288;28;20043;-80
2022/10/06 08:41:00;;;;;;;19.10;3.15;;;13.40;99.90;;;;;;4951391;28;20047;-79
2022/10/06 08:43:28;;;;;;;13.05;2.35;;;13.50;99.90;;;;;;4936659;28;20042;-80
2022/10/06 08:46:00;;;;;;;11.65;1.95;;;13.60;99.90;;;;;;4958479;28;20131;-78
2022/10/06 08:48:37;;;;;;;16.83;2.15;;;13.60;99.90;;;;;;4949328;28;20051;-78
2022/10/06 08:51:21;;;;;;;9.57;2.28;;;13.60;99.90;;;;;;4951123;28;20118;-80
2022/10/06 08:54:07;;;;;;;15.75;2.47;;;13.70;99.90;;;;;;4973625;28;20382;-80
2022/10/06 08:56:47;;;;;;;13.32;2.67;;;13.70;99.90;;;;;;4932771;28;20047;-80
2022/10/06 08:59:15;;;;;;;9.70;2.08;;;13.80;99.90;;;;;;4946338;28;20058;-80
2022/10/06 09:01:50;;;;;;;14.73;2.67;;;13.80;99.90;;;;;;4936416;28;20442;-80
2022/10/06 09:04:27;;;;;;;11.38;2.22;;;13.90;99.90;;;;;;4953934;28;20049;-81
2022/10/06 09:07:13;;;;;;;13.50;2.97;;;13.90;99.90;;;;;;4959945;28;20038;-80
2022/10/06 09:10:17;;;;;;;10.35;2.28;;;14.00;99.90;;;;;;4954488;28;20522;-81
2022/10/06 09:12:54;;;;;;;15.85;2.92;;;14.00;99.90;;;;;;4938622;28;20121;-81
2022/10/06 09:15:34;;;;;;;16.90;2.40;;;14.10;99.90;;;;;;4955898;28;20047;-81
2022/10/06 09:18:12;;;;;;;13.52;2.83;;;14.10;99.90;;;;;;4946407;28;20038;-81
2022/10/06 09:20:53;;;;;;;9.32;2.00;;;14.10;99.90;;;;;;4975012;28;20046;-80
2022/10/06 09:26:04;;;;;;;14.80;2.33;;;14.20;99.90;;;;;;4964408;28;20054;-80
2022/10/06 09:28:30;;;;;;;15.55;3.25;;;14.30;99.90;;;;;;4967680;28;20101;-81
2022/10/06 09:30:59;;;;;;;8.35;1.98;;;14.30;99.90;;;;;;4960508;28;20058;-80
2022/10/06 09:33:38;;;;;;;12.07;2.50;;;14.30;99.90;;;;;;4937775;28;20071;-82
2022/10/06 09:36:09;;;;;;;12.07;1.98;;;14.40;99.90;;;;;;4964408;28;20046;-80
2022/10/06 09:38:55;;;;;;;15.20;2.30;;;14.50;99.90;;;;;;4961668;28;20074;-79
2022/10/06 09:41:37;;;;;;;15.80;2.25;;;14.50;99.90;;;;;;4954843;28;20051;-78
2022/10/06 09:44:26;;;;;;;12.73;2.33;;;14.50;99.90;;;;;;4960956;28;20043;-78
2022/10/06 09:46:52;;;;;;;10.68;2.00;;;14.70;99.90;;;;;;4942754;28;20569;-81
2022/10/06 09:49:22;;;;;;;11.10;2.35;;;14.60;99.90;;;;;;4960267;28;20054;-80
2022/10/06 09:52:00;;;;;;;12.90;2.50;;;14.70;99.90;;;;;;4945773;29;20128;-81
2022/10/06 09:54:27;;;;;;;17.27;3.13;;;14.70;99.90;;;;;;4939768;29;20098;-79
2022/10/06 09:56:56;;;;;;;12.38;2.10;;;14.80;99.90;;;;;;4944201;28;20608;-80
2022/10/06 09:59:25;;;;;;;13.93;2.05;;;14.80;99.90;;;;;;4953479;28;20095;-80
2022/10/06 10:01:56;;;;;;;14.40;2.30;;;14.80;99.90;;;;;;4931383;28;20043;-79
2022/10/06 10:04:26;;;;;;;9.27;2.30;;;14.90;99.90;;;;;;4958601;28;20638;-79
2022/10/06 10:06:52;;;;;;;14.07;2.55;;;14.90;99.90;;;;;;4973403;28;20089;-80
2022/10/06 10:09:28;;;;;;;14.02;2.20;;;15.00;99.90;;;;;;4959422;28;20101;-80
2022/10/06 10:12:26;;;;;;;12.85;2.33;;;15.00;99.90;;;;;;4958260;28;20051;-79
2022/10/06 10:15:32;;;;;;;13.48;2.55;;;15.20;99.90;;;;;;4943878;28;20046;-80
2022/10/06 10:18:01;;;;;;;12.55;2.10;;;15.30;99.90;;;;;;4925859;28;20049;-80
2022/10/06 10:20:35;;;;;;;11.45;2.30;;;15.30;99.90;;;;;;4964068;28;20043;-80
2022/10/06 10:23:17;;;;;;;10.40;1.88;;;15.30;99.90;;;;;;4951092;28;20146;-81
2022/10/06 10:25:57;;;;;;;10.13;2.00;;;15.30;99.90;;;;;;4942051;28;20043;-81
2022/10/06 10:29:00;;;;;;;8.43;1.70;;;15.20;99.90;;;;;;4957388;28;20437;-80
2022/10/06 10:31:26;;;;;;;;;;;15.30;99.90;;;;;;4957842;28;20031;-78
2022/10/06 10:34:23;;;;;;;9.95;2.25;;;15.50;99.90;;;;;;4947371;28;19988;-80
2022/10/06 10:37:11;;;;;;;10.88;2.03;;;15.50;99.90;;;;;;4954105;28;20404;-79
2022/10/06 10:39:40;;;;;;;8.73;2.08;;;15.50;99.90;;;;;;4953428;28;20043;-79
2022/10/06 10:42:20;;;;;;;12.18;2.30;;;15.60;99.90;;;;;;4957892;28;20053;-80
2022/10/06 10:44:59;;;;;;;9.95;1.90;;;15.70;99.90;;;;;;4959192;28;20153;-80
2022/10/06 10:47:30;;;;;;;13.20;2.28;;;15.70;99.90;;;;;;4937549;28;20186;-80
2022/10/06 10:50:25;;;;;;;11.35;2.30;;;15.60;99.90;;;;;;4958631;28;20138;-79
2022/10/06 10:53:47;;;;;;;11.18;2.10;;;15.80;99.90;;;;;;4952956;28;20074;-81
2022/10/06 10:56:16;;;;;;;10.75;2.28;;;16.10;99.90;;;;;;4937049;28;20051;-79
2022/10/06 10:59:36;;;;;;;13.20;2.38;;;16.30;99.90;;;;;;4973447;28;20050;-80
2022/10/06 11:03:10;;;;;;;8.68;2.00;;;16.50;99.90;;;;;;4937780;29;20050;-80
2022/10/06 11:06:38;;;;;;;10.30;2.05;;;16.80;99.90;;;;;;4967180;28;20675;-79
2022/10/06 11:09:16;;;;;;;9.75;1.98;;;17.20;99.90;;;;;;4955141;28;20054;-81
2022/10/06 11:11:59;;;;;;;10.82;1.70;;;17.50;99.90;;;;;;4956704;28;20035;-78
2022/10/06 11:14:44;;;;;;;11.13;1.83;;;17.70;99.90;;;;;;4959235;28;20053;-81
2022/10/06 11:17:54;;;;;;;10.10;2.05;;;17.60;99.90;;;;;;4953196;28;20042;-80
2022/10/06 11:24:55;;;;;;;12.35;1.95;;;17.90;99.90;;;;;;4971821;28;20042;-79
2022/10/06 11:27:54;;;;;;;8.80;2.15;;;18.00;99.90;;;;;;4972008;28;20042;-79
2022/10/06 11:30:25;;;;;;;7.38;1.52;;;18.20;99.90;;;;;;4957841;28;20133;-79
2022/10/06 11:33:26;;;;;;;8.52;1.75;;;18.30;99.90;;;;;;4964760;28;20043;-80
2022/10/06 11:35:51;;;;;;;17.73;2.05;;;18.30;99.90;;;;;;4972574;28;20047;-79
2022/10/06 11:38:31;;;;;;;7.03;1.85;;;18.40;99.70;;;;;;4951455;28;20402;-79
2022/10/06 11:41:12;;;;;;;7.50;1.80;;;18.30;97.90;;;;;;4969704;28;20042;-78
2022/10/06 11:44:03;;;;;;;12.15;1.73;;;18.10;98.90;;;;;;4948464;28;20082;-78
2022/10/06 11:46:47;;;;;;;10.80;1.85;;;18.00;97.90;;;;;;4954579;28;20074;-77
2022/10/06 11:49:28;;;;;;;7.55;1.65;;;18.10;99.90;;;;;;4963719;28;20050;-78
2022/10/06 11:52:06;;;;;;;10.40;1.60;;;18.20;97.60;;;;;;4971136;28;20058;-78
2022/10/06 11:54:47;;;;;;;6.72;1.52;;;18.60;97.50;;;;;;4954830;28;20074;-79
2022/10/06 11:57:21;;;;;;;11.73;1.95;;;18.50;97.20;;;;;;4971268;28;20513;-79
2022/10/06 11:59:49;;;;;;;7.60;1.70;;;18.70;98.50;;;;;;4969500;28;20035;-78
2022/10/06 12:02:33;;;;;;;9.70;1.90;;;18.40;97.70;;;;;;4958073;28;20050;-82
2022/10/06 12:05:08;;;;;;;5.68;1.67;;;18.40;97.60;;;;;;4954367;28;20046;-78
2022/10/06 12:07:55;;;;;;;7.82;1.50;;;18.50;97.20;;;;;;4951544;28;20066;-79
2022/10/06 12:10:27;;;;;;;6.53;1.23;;;18.50;96.50;;;;;;4954504;28;20050;-78
2022/10/06 12:13:22;;;;;;;5.85;1.30;;;18.50;95.00;;;;;;4950987;28;20046;-79
2022/10/06 12:15:52;;;;;;;5.82;1.10;;;18.40;94.00;;;;;;4956546;28;20046;-77
2022/10/06 12:18:45;;;;;;;7.55;1.25;;;18.10;93.20;;;;;;4953395;28;20409;-77
2022/10/06 12:21:36;;;;;;;10.95;1.48;;;18.20;94.70;;;;;;4955876;28;20062;-78
2022/10/06 12:24:35;;;;;;;8.20;1.50;;;18.00;93.40;;;;;;4966977;28;20130;-78
2022/10/06 12:27:24;;;;;;;8.35;1.50;;;18.10;93.50;;;;;;4964023;28;20410;-78
2022/10/06 12:30:11;;;;;;;8.70;1.83;;;18.30;92.90;;;;;;4946385;28;20053;-79
2022/10/06 12:32:57;;;;;;;4.70;1.38;;;18.40;94.60;;;;;;4967070;28;20062;-79
2022/10/06 12:35:38;;;;;;;5.63;1.08;;;18.60;93.20;;;;;;4970156;28;20042;-78
2022/10/06 12:38:25;;;;;;;5.90;1.58;;;18.80;93.70;;;;;;4945262;28;20050;-79
2022/10/06 12:40:54;;;;;;;7.35;1.60;;;18.90;93.50;;;;;;4964300;28;20034;-78
2022/10/06 12:43:22;;;;;;;6.55;1.45;;;19.00;92.90;;;;;;4966731;28;20047;-78
2022/10/06 12:46:18;;;;;;;5.80;1.10;;;19.10;93.60;;;;;;4973851;28;20157;-78
2022/10/06 12:49:05;;;;;;;7.20;1.75;;;19.00;93.10;;;;;;4965098;28;20069;-78
2022/10/06 12:51:42;;;;;;;5.97;1.52;;;19.40;94.00;;;;;;4952095;28;20502;-78
2022/10/06 12:54:08;;;;;;;4.85;1.00;;;19.50;92.20;;;;;;4962882;28;20129;-79
2022/10/06 12:57:12;;;;;;;8.00;1.30;;;19.30;91.00;;;;;;4958552;28;20072;-78
2022/10/06 12:59:39;;;;;;;4.90;1.27;;;19.30;91.00;;;;;;4957616;28;20043;-78
2022/10/06 13:02:09;;;;;;;7.05;1.25;;;19.20;91.10;;;;;;4951722;28;20494;-79
2022/10/06 13:04:42;;;;;;;7.68;1.67;;;19.00;90.50;;;;;;4953305;28;20450;-79
2022/10/06 13:07:21;;;;;;;6.10;1.38;;;18.80;91.50;;;;;;4952568;28;20067;-79
2022/10/06 13:09:49;;;;;;;6.10;1.25;;;18.90;92.10;;;;;;4955604;28;20089;-78
2022/10/06 13:12:38;;;;;;;11.57;1.45;;;19.10;91.90;;;;;;4968202;28;20043;-78
2022/10/06 13:15:29;;;;;;;7.93;1.83;;;19.50;91.40;;;;;;4950927;28;20050;-79
2022/10/06 13:18:06;;;;;;;6.80;1.33;;;19.20;89.90;;;;;;4930320;28;20047;-79
2022/10/06 13:20:48;;;;;;;5.60;1.23;;;19.10;89.60;;;;;;4945545;29;20039;-79
2022/10/06 13:23:26;;;;;;;9.23;1.70;;;19.10;91.00;;;;;;4959343;28;20532;-79
2022/10/06 13:25:59;;;;;;;8.40;1.70;;;19.20;90.70;;;;;;4961754;28;20278;-81